sensor_id;sensor_type;location;lat;lon;timestamp;pressure;altitude;pressure_sealevel;temperature
70831;BMP180;58451;51.550;7.208;2022-09-14T00:01:38;100114.40;;;17.30
70831;BMP180;58451;51.550;7.208;2022-09-14T00:04:11;100107.20;;;17.30
70831;BMP180;58451;51.550;7.208;2022-09-14T00:06:39;100105.40;;;17.30
70831;BMP180;58451;51.550;7.208;2022-09-14T00:09:07;100104.40;;;17.30
70831;BMP180;58451;51.550;7.208;2022-09-14T00:11:38;100099.60;;;17.20
70831;BMP180;58451;51.550;7.208;2022-09-14T00:14:06;100098.80;;;17.20
70831;BMP180;58451;51.550;7.208;2022-09-14T00:16:38;100096.40;;;17.20
70831;BMP180;58451;51.550;7.208;2022-09-14T00:19:15;100088.80;;;17.10
70831;BMP180;58451;51.550;7.208;2022-09-14T00:21:42;100088.80;;;17.10
70831;BMP180;58451;51.550;7.208;2022-09-14T00:24:10;100090.80;;;17.06
70831;BMP180;58451;51.550;7.208;2022-09-14T00:26:37;100094.00;;;17.00
70831;BMP180;58451;51.550;7.208;2022-09-14T00:29:05;100092.20;;;17.00
70831;BMP180;58451;51.550;7.208;2022-09-14T00:31:37;100097.00;;;17.00
70831;BMP180;58451;51.550;7.208;2022-09-14T00:34:08;100087.20;;;16.96
70831;BMP180;58451;51.550;7.208;2022-09-14T00:36:44;100078.60;;;16.90
70831;BMP180;58451;51.550;7.208;2022-09-14T00:39:14;100071.00;;;16.90
70831;BMP180;58451;51.550;7.208;2022-09-14T00:41:44;100062.20;;;16.90
70831;BMP180;58451;51.550;7.208;2022-09-14T00:46:50;100055.80;;;16.90
70831;BMP180;58451;51.550;7.208;2022-09-14T00:49:33;100058.60;;;16.90
70831;BMP180;58451;51.550;7.208;2022-09-14T00:52:08;100056.60;;;16.82
70831;BMP180;58451;51.550;7.208;2022-09-14T00:54:50;100053.60;;;16.80
70831;BMP180;58451;51.550;7.208;2022-09-14T00:57:19;100047.80;;;16.80
70831;BMP180;58451;51.550;7.208;2022-09-14T00:59:49;100040.80;;;16.80
70831;BMP180;58451;51.550;7.208;2022-09-14T01:02:19;100035.40;;;16.80
70831;BMP180;58451;51.550;7.208;2022-09-14T01:04:48;100034.00;;;16.76
70831;BMP180;58451;51.550;7.208;2022-09-14T01:10:39;100025.60;;;16.70
70831;BMP180;58451;51.550;7.208;2022-09-14T01:13:39;100018.80;;;16.70
70831;BMP180;58451;51.550;7.208;2022-09-14T01:20:02;100022.00;;;16.70
70831;BMP180;58451;51.550;7.208;2022-09-14T01:22:55;100022.80;;;16.68
70831;BMP180;58451;51.550;7.208;2022-09-14T01:28:39;100019.40;;;16.60
70831;BMP180;58451;51.550;7.208;2022-09-14T01:31:54;100017.60;;;16.50
70831;BMP180;58451;51.550;7.208;2022-09-14T01:34:47;100020.00;;;16.50
70831;BMP180;58451;51.550;7.208;2022-09-14T01:37:25;100017.80;;;16.48
70831;BMP180;58451;51.550;7.208;2022-09-14T01:40:04;100020.00;;;16.40
70831;BMP180;58451;51.550;7.208;2022-09-14T01:42:33;100012.40;;;16.40
70831;BMP180;58451;51.550;7.208;2022-09-14T01:45:08;100011.20;;;16.40
70831;BMP180;58451;51.550;7.208;2022-09-14T01:47:48;100007.00;;;16.40
70831;BMP180;58451;51.550;7.208;2022-09-14T01:50:28;100007.80;;;16.40
70831;BMP180;58451;51.550;7.208;2022-09-14T01:58:53;99998.00;;;16.30
70831;BMP180;58451;51.550;7.208;2022-09-14T02:01:34;99998.60;;;16.30
70831;BMP180;58451;51.550;7.208;2022-09-14T02:04:09;100003.40;;;16.30
70831;BMP180;58451;51.550;7.208;2022-09-14T02:06:46;99998.40;;;16.26
70831;BMP180;58451;51.550;7.208;2022-09-14T02:09:21;99994.80;;;16.24
70831;BMP180;58451;51.550;7.208;2022-09-14T02:11:53;99994.80;;;16.20
70831;BMP180;58451;51.550;7.208;2022-09-14T02:14:21;99996.00;;;16.20
70831;BMP180;58451;51.550;7.208;2022-09-14T02:16:49;99995.40;;;16.20
70831;BMP180;58451;51.550;7.208;2022-09-14T02:19:16;99993.80;;;16.20
70831;BMP180;58451;51.550;7.208;2022-09-14T02:21:49;99990.00;;;16.20
70831;BMP180;58451;51.550;7.208;2022-09-14T02:24:17;99990.20;;;16.20
70831;BMP180;58451;51.550;7.208;2022-09-14T02:26:45;99989.60;;;16.20
70831;BMP180;58451;51.550;7.208;2022-09-14T02:29:15;99987.80;;;16.20
70831;BMP180;58451;51.550;7.208;2022-09-14T02:32:08;99987.20;;;16.20
70831;BMP180;58451;51.550;7.208;2022-09-14T02:40:35;99985.20;;;16.20
70831;BMP180;58451;51.550;7.208;2022-09-14T02:49:24;99974.60;;;16.20
70831;BMP180;58451;51.550;7.208;2022-09-14T02:52:12;99968.60;;;16.20
70831;BMP180;58451;51.550;7.208;2022-09-14T02:57:10;99968.20;;;16.20
70831;BMP180;58451;51.550;7.208;2022-09-14T02:59:38;99970.80;;;16.20
70831;BMP180;58451;51.550;7.208;2022-09-14T03:02:04;99965.60;;;16.20
70831;BMP180;58451;51.550;7.208;2022-09-14T03:04:31;99967.80;;;16.20
70831;BMP180;58451;51.550;7.208;2022-09-14T03:06:58;99962.80;;;16.20
70831;BMP180;58451;51.550;7.208;2022-09-14T03:09:25;99963.60;;;16.20
70831;BMP180;58451;51.550;7.208;2022-09-14T03:11:52;99957.20;;;16.20
70831;BMP180;58451;51.550;7.208;2022-09-14T03:14:19;99959.00;;;16.20
70831;BMP180;58451;51.550;7.208;2022-09-14T03:16:45;99954.80;;;16.20
70831;BMP180;58451;51.550;7.208;2022-09-14T03:19:12;99952.40;;;16.20
70831;BMP180;58451;51.550;7.208;2022-09-14T03:21:39;99949.20;;;16.20
70831;BMP180;58451;51.550;7.208;2022-09-14T03:24:06;99952.40;;;16.20
70831;BMP180;58451;51.550;7.208;2022-09-14T03:26:33;99947.20;;;16.20
70831;BMP180;58451;51.550;7.208;2022-09-14T03:29:04;99951.20;;;16.10
70831;BMP180;58451;51.550;7.208;2022-09-14T03:31:32;99947.00;;;16.10
70831;BMP180;58451;51.550;7.208;2022-09-14T03:34:01;99947.20;;;16.10
70831;BMP180;58451;51.550;7.208;2022-09-14T03:36:30;99941.40;;;16.10
70831;BMP180;58451;51.550;7.208;2022-09-14T03:38:58;99941.20;;;16.10
70831;BMP180;58451;51.550;7.208;2022-09-14T03:41:28;99939.20;;;16.10
70831;BMP180;58451;51.550;7.208;2022-09-14T03:43:57;99940.40;;;16.10
70831;BMP180;58451;51.550;7.208;2022-09-14T03:46:25;99934.40;;;16.10
70831;BMP180;58451;51.550;7.208;2022-09-14T03:48:54;99930.20;;;16.00
70831;BMP180;58451;51.550;7.208;2022-09-14T03:51:22;99921.60;;;16.00
70831;BMP180;58451;51.550;7.208;2022-09-14T03:53:48;99923.60;;;16.00
70831;BMP180;58451;51.550;7.208;2022-09-14T03:56:19;99916.60;;;15.92
70831;BMP180;58451;51.550;7.208;2022-09-14T03:58:47;99913.00;;;15.90
70831;BMP180;58451;51.550;7.208;2022-09-14T04:01:18;99916.40;;;15.90
70831;BMP180;58451;51.550;7.208;2022-09-14T04:03:46;99921.40;;;15.80
70831;BMP180;58451;51.550;7.208;2022-09-14T04:06:16;99927.40;;;15.80
70831;BMP180;58451;51.550;7.208;2022-09-14T04:08:45;99925.80;;;15.68
70831;BMP180;58451;51.550;7.208;2022-09-14T04:11:22;99928.20;;;15.60
70831;BMP180;58451;51.550;7.208;2022-09-14T04:13:51;99927.20;;;15.60
70831;BMP180;58451;51.550;7.208;2022-09-14T04:16:20;99923.00;;;15.60
70831;BMP180;58451;51.550;7.208;2022-09-14T04:18:47;99919.80;;;15.60
70831;BMP180;58451;51.550;7.208;2022-09-14T04:21:17;99920.80;;;15.50
70831;BMP180;58451;51.550;7.208;2022-09-14T04:23:45;99914.80;;;15.50
70831;BMP180;58451;51.550;7.208;2022-09-14T04:26:33;99914.00;;;15.44
70831;BMP180;58451;51.550;7.208;2022-09-14T04:29:00;99913.00;;;15.40
70831;BMP180;58451;51.550;7.208;2022-09-14T04:31:27;99915.20;;;15.40
70831;BMP180;58451;51.550;7.208;2022-09-14T04:33:56;99914.00;;;15.40
70831;BMP180;58451;51.550;7.208;2022-09-14T04:36:27;99915.40;;;15.40
70831;BMP180;58451;51.550;7.208;2022-09-14T04:38:59;99914.40;;;15.36
70831;BMP180;58451;51.550;7.208;2022-09-14T04:41:29;99916.00;;;15.32
70831;BMP180;58451;51.550;7.208;2022-09-14T04:43:57;99915.40;;;15.30
70831;BMP180;58451;51.550;7.208;2022-09-14T04:46:31;99913.60;;;15.30
70831;BMP180;58451;51.550;7.208;2022-09-14T04:49:00;99915.00;;;15.30
70831;BMP180;58451;51.550;7.208;2022-09-14T04:51:30;99919.20;;;15.30
70831;BMP180;58451;51.550;7.208;2022-09-14T04:53:58;99915.00;;;15.30
70831;BMP180;58451;51.550;7.208;2022-09-14T04:56:29;99917.80;;;15.30
70831;BMP180;58451;51.550;7.208;2022-09-14T04:58:59;99916.60;;;15.30
70831;BMP180;58451;51.550;7.208;2022-09-14T05:01:32;99915.80;;;15.20
70831;BMP180;58451;51.550;7.208;2022-09-14T05:04:00;99918.40;;;15.20
70831;BMP180;58451;51.550;7.208;2022-09-14T05:06:31;99917.60;;;15.20
70831;BMP180;58451;51.550;7.208;2022-09-14T05:09:01;99914.20;;;15.20
70831;BMP180;58451;51.550;7.208;2022-09-14T05:11:32;99908.60;;;15.14
70831;BMP180;58451;51.550;7.208;2022-09-14T05:14:01;99912.40;;;15.10
70831;BMP180;58451;51.550;7.208;2022-09-14T05:16:32;99912.40;;;15.10
70831;BMP180;58451;51.550;7.208;2022-09-14T05:19:03;99908.40;;;15.10
70831;BMP180;58451;51.550;7.208;2022-09-14T05:21:34;99906.20;;;15.10
70831;BMP180;58451;51.550;7.208;2022-09-14T05:24:06;99909.80;;;15.10
70831;BMP180;58451;51.550;7.208;2022-09-14T05:26:33;99908.60;;;15.10
70831;BMP180;58451;51.550;7.208;2022-09-14T05:29:01;99912.40;;;15.10
70831;BMP180;58451;51.550;7.208;2022-09-14T05:31:30;99911.40;;;15.06
70831;BMP180;58451;51.550;7.208;2022-09-14T05:33:58;99915.80;;;15.04
70831;BMP180;58451;51.550;7.208;2022-09-14T05:36:25;99916.60;;;15.00
70831;BMP180;58451;51.550;7.208;2022-09-14T05:38:52;99918.00;;;15.00
70831;BMP180;58451;51.550;7.208;2022-09-14T05:41:20;99920.40;;;15.00
70831;BMP180;58451;51.550;7.208;2022-09-14T05:43:46;99918.40;;;15.00
70831;BMP180;58451;51.550;7.208;2022-09-14T05:46:17;99922.20;;;15.00
70831;BMP180;58451;51.550;7.208;2022-09-14T05:48:48;99924.40;;;14.94
70831;BMP180;58451;51.550;7.208;2022-09-14T05:51:23;99918.40;;;14.90
70831;BMP180;58451;51.550;7.208;2022-09-14T05:53:57;99921.60;;;14.90
70831;BMP180;58451;51.550;7.208;2022-09-14T05:56:28;99915.40;;;14.90
70831;BMP180;58451;51.550;7.208;2022-09-14T05:58:55;99911.40;;;14.80
70831;BMP180;58451;51.550;7.208;2022-09-14T06:01:28;99906.60;;;14.80
70831;BMP180;58451;51.550;7.208;2022-09-14T06:03:59;99909.00;;;14.80
70831;BMP180;58451;51.550;7.208;2022-09-14T06:06:30;99905.40;;;14.80
70831;BMP180;58451;51.550;7.208;2022-09-14T06:08:58;99909.20;;;14.72
70831;BMP180;58451;51.550;7.208;2022-09-14T06:11:28;99907.40;;;14.70
70831;BMP180;58451;51.550;7.208;2022-09-14T06:13:56;99906.00;;;14.70
70831;BMP180;58451;51.550;7.208;2022-09-14T06:16:25;99911.20;;;14.70
70831;BMP180;58451;51.550;7.208;2022-09-14T06:18:55;99912.20;;;14.62
70831;BMP180;58451;51.550;7.208;2022-09-14T06:21:30;99915.40;;;14.60
70831;BMP180;58451;51.550;7.208;2022-09-14T06:23:57;99913.00;;;14.60
70831;BMP180;58451;51.550;7.208;2022-09-14T06:26:25;99908.20;;;14.50
70831;BMP180;58451;51.550;7.208;2022-09-14T06:28:52;99910.60;;;14.50
70831;BMP180;58451;51.550;7.208;2022-09-14T06:31:19;99910.60;;;14.50
70831;BMP180;58451;51.550;7.208;2022-09-14T06:33:49;99913.20;;;14.50
70831;BMP180;58451;51.550;7.208;2022-09-14T06:36:24;99912.80;;;14.50
70831;BMP180;58451;51.550;7.208;2022-09-14T06:38:52;99911.20;;;14.50
70831;BMP180;58451;51.550;7.208;2022-09-14T06:41:23;99911.00;;;14.50
70831;BMP180;58451;51.550;7.208;2022-09-14T06:43:57;99913.40;;;14.40
70831;BMP180;58451;51.550;7.208;2022-09-14T06:46:29;99914.20;;;14.46
70831;BMP180;58451;51.550;7.208;2022-09-14T06:49:15;99911.60;;;14.46
70831;BMP180;58451;51.550;7.208;2022-09-14T06:51:46;99916.80;;;14.40
70831;BMP180;58451;51.550;7.208;2022-09-14T06:54:15;99917.00;;;14.42
70831;BMP180;58451;51.550;7.208;2022-09-14T06:56:44;99922.00;;;14.40
70831;BMP180;58451;51.550;7.208;2022-09-14T06:59:15;99924.20;;;14.40
70831;BMP180;58451;51.550;7.208;2022-09-14T07:01:43;99929.60;;;14.40
70831;BMP180;58451;51.550;7.208;2022-09-14T07:04:19;99928.60;;;14.40
70831;BMP180;58451;51.550;7.208;2022-09-14T07:06:48;99928.00;;;14.40
70831;BMP180;58451;51.550;7.208;2022-09-14T07:09:18;99929.20;;;14.40
70831;BMP180;58451;51.550;7.208;2022-09-14T07:11:45;99931.80;;;14.36
70831;BMP180;58451;51.550;7.208;2022-09-14T07:14:12;99934.40;;;14.30
70831;BMP180;58451;51.550;7.208;2022-09-14T07:16:39;99933.80;;;14.34
70831;BMP180;58451;51.550;7.208;2022-09-14T07:19:11;99933.20;;;14.32
70831;BMP180;58451;51.550;7.208;2022-09-14T07:21:39;99935.40;;;14.40
70831;BMP180;58451;51.550;7.208;2022-09-14T07:24:10;99932.60;;;14.40
70831;BMP180;58451;51.550;7.208;2022-09-14T07:26:40;99932.40;;;14.40
70831;BMP180;58451;51.550;7.208;2022-09-14T07:29:18;99933.40;;;14.40
70831;BMP180;58451;51.550;7.208;2022-09-14T07:31:51;99935.20;;;14.40
70831;BMP180;58451;51.550;7.208;2022-09-14T07:34:19;99941.40;;;14.40
70831;BMP180;58451;51.550;7.208;2022-09-14T07:36:46;99937.20;;;14.30
70831;BMP180;58451;51.550;7.208;2022-09-14T07:39:15;99930.80;;;14.30
70831;BMP180;58451;51.550;7.208;2022-09-14T07:41:43;99929.20;;;14.30
70831;BMP180;58451;51.550;7.208;2022-09-14T07:44:14;99926.40;;;14.36
70831;BMP180;58451;51.550;7.208;2022-09-14T07:46:43;99927.80;;;14.30
70831;BMP180;58451;51.550;7.208;2022-09-14T07:49:12;99922.80;;;14.30
70831;BMP180;58451;51.550;7.208;2022-09-14T07:51:40;99921.40;;;14.30
70831;BMP180;58451;51.550;7.208;2022-09-14T07:54:11;99924.80;;;14.30
70831;BMP180;58451;51.550;7.208;2022-09-14T07:56:39;99922.40;;;14.28
70831;BMP180;58451;51.550;7.208;2022-09-14T07:59:06;99925.60;;;14.24
70831;BMP180;58451;51.550;7.208;2022-09-14T08:01:52;99926.00;;;14.24
70831;BMP180;58451;51.550;7.208;2022-09-14T08:04:19;99925.20;;;14.20
70831;BMP180;58451;51.550;7.208;2022-09-14T08:06:46;99921.20;;;14.22
70831;BMP180;58451;51.550;7.208;2022-09-14T08:09:13;99918.20;;;14.24
70831;BMP180;58451;51.550;7.208;2022-09-14T08:11:41;99913.40;;;14.30
70831;BMP180;58451;51.550;7.208;2022-09-14T08:14:10;99914.00;;;14.30
70831;BMP180;58451;51.550;7.208;2022-09-14T08:16:39;99914.20;;;14.30
70831;BMP180;58451;51.550;7.208;2022-09-14T08:19:13;99907.20;;;14.30
70831;BMP180;58451;51.550;7.208;2022-09-14T08:21:42;99906.20;;;14.30
70831;BMP180;58451;51.550;7.208;2022-09-14T08:24:17;99908.40;;;14.30
70831;BMP180;58451;51.550;7.208;2022-09-14T08:26:46;99909.40;;;14.40
70831;BMP180;58451;51.550;7.208;2022-09-14T08:29:17;99905.80;;;14.50
70831;BMP180;58451;51.550;7.208;2022-09-14T08:31:46;99905.20;;;14.50
70831;BMP180;58451;51.550;7.208;2022-09-14T08:34:15;99905.60;;;14.60
70831;BMP180;58451;51.550;7.208;2022-09-14T08:36:45;99900.20;;;14.60
70831;BMP180;58451;51.550;7.208;2022-09-14T08:39:16;99906.00;;;14.64
70831;BMP180;58451;51.550;7.208;2022-09-14T08:41:57;99903.20;;;14.70
70831;BMP180;58451;51.550;7.208;2022-09-14T08:47:15;99896.20;;;14.80
70831;BMP180;58451;51.550;7.208;2022-09-14T09:00:48;99882.40;;;15.00
70831;BMP180;58451;51.550;7.208;2022-09-14T09:06:05;99874.20;;;15.18
70831;BMP180;58451;51.550;7.208;2022-09-14T09:11:48;99879.80;;;15.30
70831;BMP180;58451;51.550;7.208;2022-09-14T09:16:53;99885.20;;;15.48
70831;BMP180;58451;51.550;7.208;2022-09-14T09:19:33;99886.20;;;15.50
70831;BMP180;58451;51.550;7.208;2022-09-14T09:22:05;99888.20;;;15.50
70831;BMP180;58451;51.550;7.208;2022-09-14T09:24:53;99882.00;;;15.60
70831;BMP180;58451;51.550;7.208;2022-09-14T09:27:22;99882.80;;;15.60
70831;BMP180;58451;51.550;7.208;2022-09-14T09:29:50;99883.80;;;15.60
70831;BMP180;58451;51.550;7.208;2022-09-14T09:32:23;99887.00;;;15.60
70831;BMP180;58451;51.550;7.208;2022-09-14T09:35:16;99881.80;;;15.60
70831;BMP180;58451;51.550;7.208;2022-09-14T09:37:53;99881.20;;;15.70
70831;BMP180;58451;51.550;7.208;2022-09-14T09:40:35;99878.00;;;15.70
70831;BMP180;58451;51.550;7.208;2022-09-14T09:43:10;99881.20;;;15.70
70831;BMP180;58451;51.550;7.208;2022-09-14T09:48:24;99888.00;;;15.60
70831;BMP180;58451;51.550;7.208;2022-09-14T09:53:57;99892.80;;;15.60
70831;BMP180;58451;51.550;7.208;2022-09-14T09:56:32;99891.60;;;15.50
70831;BMP180;58451;51.550;7.208;2022-09-14T09:59:00;99900.00;;;15.50
70831;BMP180;58451;51.550;7.208;2022-09-14T10:01:33;99891.60;;;15.40
70831;BMP180;58451;51.550;7.208;2022-09-14T10:06:29;99888.40;;;15.40
70831;BMP180;58451;51.550;7.208;2022-09-14T10:08:57;99884.20;;;15.46
70831;BMP180;58451;51.550;7.208;2022-09-14T10:11:34;99880.80;;;15.42
70831;BMP180;58451;51.550;7.208;2022-09-14T10:14:16;99883.80;;;15.50
70831;BMP180;58451;51.550;7.208;2022-09-14T10:16:44;99887.00;;;15.50
70831;BMP180;58451;51.550;7.208;2022-09-14T10:19:16;99887.20;;;15.50
70831;BMP180;58451;51.550;7.208;2022-09-14T10:25:02;99888.80;;;15.60
70831;BMP180;58451;51.550;7.208;2022-09-14T10:27:58;99891.20;;;15.60
70831;BMP180;58451;51.550;7.208;2022-09-14T10:30:35;99893.40;;;15.60
70831;BMP180;58451;51.550;7.208;2022-09-14T10:33:08;99893.40;;;15.50
70831;BMP180;58451;51.550;7.208;2022-09-14T10:38:52;99891.60;;;15.50
70831;BMP180;58451;51.550;7.208;2022-09-14T10:41:35;99887.20;;;15.50
70831;BMP180;58451;51.550;7.208;2022-09-14T10:56:24;99871.00;;;15.20
70831;BMP180;58451;51.550;7.208;2022-09-14T11:01:52;99867.80;;;15.10
70831;BMP180;58451;51.550;7.208;2022-09-14T11:10:29;99871.00;;;15.10
70831;BMP180;58451;51.550;7.208;2022-09-14T11:13:40;99857.20;;;15.10
70831;BMP180;58451;51.550;7.208;2022-09-14T11:22:43;99858.40;;;15.18
70831;BMP180;58451;51.550;7.208;2022-09-14T11:28:16;99857.40;;;15.20
70831;BMP180;58451;51.550;7.208;2022-09-14T11:30:54;99852.60;;;15.30
70831;BMP180;58451;51.550;7.208;2022-09-14T11:33:34;99857.00;;;15.40
70831;BMP180;58451;51.550;7.208;2022-09-14T11:36:21;99853.80;;;15.40
70831;BMP180;58451;51.550;7.208;2022-09-14T11:39:02;99854.60;;;15.48
70831;BMP180;58451;51.550;7.208;2022-09-14T11:41:47;99854.40;;;15.50
70831;BMP180;58451;51.550;7.208;2022-09-14T11:44:25;99850.20;;;15.50
70831;BMP180;58451;51.550;7.208;2022-09-14T11:47:21;99849.20;;;15.60
70831;BMP180;58451;51.550;7.208;2022-09-14T11:52:38;99845.20;;;15.60
70831;BMP180;58451;51.550;7.208;2022-09-14T11:55:16;99840.00;;;15.60
70831;BMP180;58451;51.550;7.208;2022-09-14T11:57:45;99834.80;;;15.60
70831;BMP180;58451;51.550;7.208;2022-09-14T12:03:19;99829.20;;;15.60
70831;BMP180;58451;51.550;7.208;2022-09-14T12:05:48;99827.80;;;15.60
70831;BMP180;58451;51.550;7.208;2022-09-14T12:13:26;99821.80;;;15.70
70831;BMP180;58451;51.550;7.208;2022-09-14T12:16:06;99810.80;;;15.60
70831;BMP180;58451;51.550;7.208;2022-09-14T12:18:38;99814.40;;;15.60
70831;BMP180;58451;51.550;7.208;2022-09-14T12:21:23;99810.00;;;15.60
70831;BMP180;58451;51.550;7.208;2022-09-14T12:23:52;99807.00;;;15.48
70831;BMP180;58451;51.550;7.208;2022-09-14T12:26:29;99807.60;;;15.40
70831;BMP180;58451;51.550;7.208;2022-09-14T12:29:31;99812.00;;;15.40
70831;BMP180;58451;51.550;7.208;2022-09-14T12:32:03;99814.80;;;15.42
70831;BMP180;58451;51.550;7.208;2022-09-14T12:34:32;99814.80;;;15.50
70831;BMP180;58451;51.550;7.208;2022-09-14T12:37:25;99825.20;;;15.50
70831;BMP180;58451;51.550;7.208;2022-09-14T12:42:54;99817.40;;;15.54
70831;BMP180;58451;51.550;7.208;2022-09-14T12:45:49;99814.00;;;15.50
70831;BMP180;58451;51.550;7.208;2022-09-14T13:02:54;99810.40;;;15.40
70831;BMP180;58451;51.550;7.208;2022-09-14T13:05:28;99808.20;;;15.40
70831;BMP180;58451;51.550;7.208;2022-09-14T13:07:56;99803.60;;;15.30
70831;BMP180;58451;51.550;7.208;2022-09-14T13:10:36;99802.20;;;15.30
70831;BMP180;58451;51.550;7.208;2022-09-14T13:13:27;99801.80;;;15.32
70831;BMP180;58451;51.550;7.208;2022-09-14T13:16:01;99794.40;;;15.30
70831;BMP180;58451;51.550;7.208;2022-09-14T13:18:36;99789.20;;;15.40
70831;BMP180;58451;51.550;7.208;2022-09-14T13:23:44;99799.20;;;15.50
70831;BMP180;58451;51.550;7.208;2022-09-14T13:26:23;99795.80;;;15.40
70831;BMP180;58451;51.550;7.208;2022-09-14T13:28:54;99792.80;;;15.40
70831;BMP180;58451;51.550;7.208;2022-09-14T13:31:33;99788.00;;;15.50
70831;BMP180;58451;51.550;7.208;2022-09-14T13:34:02;99780.60;;;15.50
70831;BMP180;58451;51.550;7.208;2022-09-14T13:36:38;99777.40;;;15.52
70831;BMP180;58451;51.550;7.208;2022-09-14T13:39:35;99768.40;;;15.60
70831;BMP180;58451;51.550;7.208;2022-09-14T13:42:04;99771.00;;;15.60
70831;BMP180;58451;51.550;7.208;2022-09-14T13:44:35;99774.20;;;15.70
70831;BMP180;58451;51.550;7.208;2022-09-14T13:47:13;99779.00;;;15.64
70831;BMP180;58451;51.550;7.208;2022-09-14T13:49:43;99772.80;;;15.60
70831;BMP180;58451;51.550;7.208;2022-09-14T13:58:14;99762.40;;;15.54
70831;BMP180;58451;51.550;7.208;2022-09-14T14:01:01;99760.80;;;15.60
70831;BMP180;58451;51.550;7.208;2022-09-14T14:03:49;99760.20;;;15.60
70831;BMP180;58451;51.550;7.208;2022-09-14T14:06:31;99760.00;;;15.58
70831;BMP180;58451;51.550;7.208;2022-09-14T14:09:09;99754.60;;;15.60
70831;BMP180;58451;51.550;7.208;2022-09-14T14:11:51;99751.40;;;15.60
70831;BMP180;58451;51.550;7.208;2022-09-14T14:14:24;99747.80;;;15.56
70831;BMP180;58451;51.550;7.208;2022-09-14T14:19:39;99758.80;;;15.60
70831;BMP180;58451;51.550;7.208;2022-09-14T14:24:45;99740.00;;;15.70
70831;BMP180;58451;51.550;7.208;2022-09-14T14:27:35;99733.40;;;15.70
70831;BMP180;58451;51.550;7.208;2022-09-14T14:30:17;99732.60;;;15.70
70831;BMP180;58451;51.550;7.208;2022-09-14T14:32:52;99735.20;;;15.88
70831;BMP180;58451;51.550;7.208;2022-09-14T14:35:30;99736.60;;;15.90
70831;BMP180;58451;51.550;7.208;2022-09-14T14:37:57;99739.00;;;15.92
70831;BMP180;58451;51.550;7.208;2022-09-14T14:40:26;99740.00;;;15.98
70831;BMP180;58451;51.550;7.208;2022-09-14T14:42:54;99738.60;;;15.94
70831;BMP180;58451;51.550;7.208;2022-09-14T14:45:25;99743.60;;;15.90
70831;BMP180;58451;51.550;7.208;2022-09-14T14:47:54;99743.80;;;15.90
70831;BMP180;58451;51.550;7.208;2022-09-14T14:50:30;99745.60;;;15.94
70831;BMP180;58451;51.550;7.208;2022-09-14T14:53:00;99744.20;;;16.00
70831;BMP180;58451;51.550;7.208;2022-09-14T14:55:28;99741.60;;;16.00
70831;BMP180;58451;51.550;7.208;2022-09-14T14:58:02;99744.80;;;16.10
70831;BMP180;58451;51.550;7.208;2022-09-14T15:00:32;99737.80;;;16.10
70831;BMP180;58451;51.550;7.208;2022-09-14T15:02:59;99738.40;;;16.10
70831;BMP180;58451;51.550;7.208;2022-09-14T15:05:26;99730.80;;;16.10
70831;BMP180;58451;51.550;7.208;2022-09-14T15:07:53;99727.40;;;16.10
70831;BMP180;58451;51.550;7.208;2022-09-14T15:10:25;99717.00;;;16.10
70831;BMP180;58451;51.550;7.208;2022-09-14T15:12:53;99713.80;;;16.18
70831;BMP180;58451;51.550;7.208;2022-09-14T15:15:24;99708.80;;;16.20
70831;BMP180;58451;51.550;7.208;2022-09-14T15:17:52;99712.60;;;16.10
70831;BMP180;58451;51.550;7.208;2022-09-14T15:20:19;99714.40;;;16.20
70831;BMP180;58451;51.550;7.208;2022-09-14T15:22:47;99713.20;;;16.10
70831;BMP180;58451;51.550;7.208;2022-09-14T15:25:16;99716.20;;;16.20
70831;BMP180;58451;51.550;7.208;2022-09-14T15:27:44;99714.80;;;16.30
70831;BMP180;58451;51.550;7.208;2022-09-14T15:30:13;99713.80;;;16.40
70831;BMP180;58451;51.550;7.208;2022-09-14T15:32:40;99714.40;;;16.50
70831;BMP180;58451;51.550;7.208;2022-09-14T15:35:12;99721.40;;;16.40
70831;BMP180;58451;51.550;7.208;2022-09-14T15:37:40;99719.40;;;16.40
70831;BMP180;58451;51.550;7.208;2022-09-14T15:40:08;99721.20;;;16.30
70831;BMP180;58451;51.550;7.208;2022-09-14T15:42:35;99722.20;;;16.20
70831;BMP180;58451;51.550;7.208;2022-09-14T15:45:03;99718.00;;;16.10
70831;BMP180;58451;51.550;7.208;2022-09-14T15:47:30;99721.00;;;16.10
70831;BMP180;58451;51.550;7.208;2022-09-14T15:50:02;99727.60;;;16.00
70831;BMP180;58451;51.550;7.208;2022-09-14T15:52:29;99726.20;;;15.90
70831;BMP180;58451;51.550;7.208;2022-09-14T15:54:56;99722.00;;;15.80
70831;BMP180;58451;51.550;7.208;2022-09-14T15:57:22;99722.20;;;15.78
70831;BMP180;58451;51.550;7.208;2022-09-14T15:59:53;99715.20;;;15.70
70831;BMP180;58451;51.550;7.208;2022-09-14T16:02:20;99716.60;;;15.62
70831;BMP180;58451;51.550;7.208;2022-09-14T16:04:47;99711.40;;;15.60
70831;BMP180;58451;51.550;7.208;2022-09-14T16:07:14;99715.20;;;15.60
70831;BMP180;58451;51.550;7.208;2022-09-14T16:09:41;99710.20;;;15.50
70831;BMP180;58451;51.550;7.208;2022-09-14T16:12:11;99712.40;;;15.42
70831;BMP180;58451;51.550;7.208;2022-09-14T16:14:38;99716.00;;;15.40
70831;BMP180;58451;51.550;7.208;2022-09-14T16:17:06;99728.80;;;15.40
70831;BMP180;58451;51.550;7.208;2022-09-14T16:19:34;99738.80;;;15.30
70831;BMP180;58451;51.550;7.208;2022-09-14T16:22:02;99745.80;;;15.20
70831;BMP180;58451;51.550;7.208;2022-09-14T16:24:30;99748.00;;;15.12
70831;BMP180;58451;51.550;7.208;2022-09-14T16:26:57;99751.00;;;15.16
70831;BMP180;58451;51.550;7.208;2022-09-14T16:29:25;99745.40;;;15.10
70831;BMP180;58451;51.550;7.208;2022-09-14T16:31:52;99751.60;;;15.10
70831;BMP180;58451;51.550;7.208;2022-09-14T16:34:26;99750.00;;;15.10
70831;BMP180;58451;51.550;7.208;2022-09-14T16:36:55;99741.40;;;15.10
70831;BMP180;58451;51.550;7.208;2022-09-14T16:39:27;99748.20;;;15.10
70831;BMP180;58451;51.550;7.208;2022-09-14T16:42:00;99749.40;;;15.10
70831;BMP180;58451;51.550;7.208;2022-09-14T16:44:28;99756.60;;;15.10
70831;BMP180;58451;51.550;7.208;2022-09-14T16:46:56;99758.00;;;15.00
70831;BMP180;58451;51.550;7.208;2022-09-14T16:49:25;99758.40;;;15.00
70831;BMP180;58451;51.550;7.208;2022-09-14T16:51:55;99759.00;;;15.00
70831;BMP180;58451;51.550;7.208;2022-09-14T16:54:24;99754.20;;;15.00
70831;BMP180;58451;51.550;7.208;2022-09-14T16:56:52;99752.00;;;14.90
70831;BMP180;58451;51.550;7.208;2022-09-14T16:59:24;99746.40;;;14.86